sensor_id;sensor_type;location;lat;lon;timestamp;P1;durP1;ratioP1;P2;durP2;ratioP2
21258;SDS011;10787;53.364;-1.480;2023-04-15T00:00:18;13.90;;;9.60;;
21258;SDS011;10787;53.364;-1.480;2023-04-15T00:03:03;12.70;;;8.83;;
21258;SDS011;10787;53.364;-1.480;2023-04-15T00:05:50;14.00;;;9.90;;
21258;SDS011;10787;53.364;-1.480;2023-04-15T00:08:35;15.53;;;9.77;;
21258;SDS011;10787;53.364;-1.480;2023-04-15T00:11:19;15.63;;;10.07;;
21258;SDS011;10787;53.364;-1.480;2023-04-15T00:14:03;15.03;;;10.53;;
21258;SDS011;10787;53.364;-1.480;2023-04-15T00:16:48;17.27;;;11.47;;
21258;SDS011;10787;53.364;-1.480;2023-04-15T00:19:38;16.67;;;11.43;;
21258;SDS011;10787;53.364;-1.480;2023-04-15T00:22:23;18.00;;;11.63;;
21258;SDS011;10787;53.364;-1.480;2023-04-15T00:25:07;18.57;;;12.10;;
21258;SDS011;10787;53.364;-1.480;2023-04-15T00:27:52;19.63;;;12.67;;
21258;SDS011;10787;53.364;-1.480;2023-04-15T00:30:37;20.50;;;12.60;;
21258;SDS011;10787;53.364;-1.480;2023-04-15T00:33:21;21.43;;;13.10;;
21258;SDS011;10787;53.364;-1.480;2023-04-15T00:36:06;20.67;;;13.37;;
21258;SDS011;10787;53.364;-1.480;2023-04-15T00:38:51;19.20;;;12.70;;
21258;SDS011;10787;53.364;-1.480;2023-04-15T00:41:35;21.37;;;13.27;;
21258;SDS011;10787;53.364;-1.480;2023-04-15T00:44:22;20.67;;;13.60;;
21258;SDS011;10787;53.364;-1.480;2023-04-15T00:47:06;21.67;;;13.90;;
21258;SDS011;10787;53.364;-1.480;2023-04-15T00:49:51;18.93;;;12.03;;
21258;SDS011;10787;53.364;-1.480;2023-04-15T00:52:35;17.10;;;11.67;;
21258;SDS011;10787;53.364;-1.480;2023-04-15T00:55:20;18.13;;;11.90;;
21258;SDS011;10787;53.364;-1.480;2023-04-15T00:58:04;19.10;;;12.60;;
21258;SDS011;10787;53.364;-1.480;2023-04-15T01:00:49;17.87;;;11.93;;
21258;SDS011;10787;53.364;-1.480;2023-04-15T01:03:37;18.47;;;12.13;;
21258;SDS011;10787;53.364;-1.480;2023-04-15T01:06:22;17.67;;;12.07;;
21258;SDS011;10787;53.364;-1.480;2023-04-15T01:09:06;17.40;;;11.80;;
21258;SDS011;10787;53.364;-1.480;2023-04-15T01:11:51;17.70;;;11.60;;
21258;SDS011;10787;53.364;-1.480;2023-04-15T01:14:36;16.97;;;11.60;;
21258;SDS011;10787;53.364;-1.480;2023-04-15T01:17:21;19.37;;;11.93;;
21258;SDS011;10787;53.364;-1.480;2023-04-15T01:20:07;17.33;;;11.47;;
21258;SDS011;10787;53.364;-1.480;2023-04-15T01:22:53;17.23;;;11.40;;
21258;SDS011;10787;53.364;-1.480;2023-04-15T01:25:38;18.17;;;12.00;;
21258;SDS011;10787;53.364;-1.480;2023-04-15T01:28:24;17.57;;;11.73;;
21258;SDS011;10787;53.364;-1.480;2023-04-15T01:31:10;17.17;;;11.50;;
21258;SDS011;10787;53.364;-1.480;2023-04-15T01:33:56;16.23;;;11.23;;
21258;SDS011;10787;53.364;-1.480;2023-04-15T01:36:41;15.93;;;10.63;;
21258;SDS011;10787;53.364;-1.480;2023-04-15T01:39:25;17.20;;;11.07;;
21258;SDS011;10787;53.364;-1.480;2023-04-15T01:42:09;16.77;;;11.10;;
21258;SDS011;10787;53.364;-1.480;2023-04-15T01:44:54;16.60;;;11.10;;
21258;SDS011;10787;53.364;-1.480;2023-04-15T01:47:38;18.63;;;10.90;;
21258;SDS011;10787;53.364;-1.480;2023-04-15T01:50:23;16.77;;;11.10;;
21258;SDS011;10787;53.364;-1.480;2023-04-15T01:53:08;19.80;;;12.07;;
21258;SDS011;10787;53.364;-1.480;2023-04-15T01:55:53;19.03;;;12.73;;
21258;SDS011;10787;53.364;-1.480;2023-04-15T01:58:37;16.90;;;11.23;;
21258;SDS011;10787;53.364;-1.480;2023-04-15T02:01:22;18.67;;;11.97;;
21258;SDS011;10787;53.364;-1.480;2023-04-15T02:04:07;19.10;;;12.57;;
21258;SDS011;10787;53.364;-1.480;2023-04-15T02:06:59;19.77;;;11.87;;
21258;SDS011;10787;53.364;-1.480;2023-04-15T02:09:43;18.83;;;12.43;;
21258;SDS011;10787;53.364;-1.480;2023-04-15T02:12:28;17.57;;;12.03;;
21258;SDS011;10787;53.364;-1.480;2023-04-15T02:15:13;20.30;;;12.93;;
21258;SDS011;10787;53.364;-1.480;2023-04-15T02:17:58;22.63;;;13.77;;
21258;SDS011;10787;53.364;-1.480;2023-04-15T02:20:43;19.17;;;13.17;;
21258;SDS011;10787;53.364;-1.480;2023-04-15T02:23:28;19.10;;;13.20;;
21258;SDS011;10787;53.364;-1.480;2023-04-15T02:26:12;17.07;;;11.60;;
21258;SDS011;10787;53.364;-1.480;2023-04-15T02:28:56;19.37;;;12.40;;
21258;SDS011;10787;53.364;-1.480;2023-04-15T02:31:40;17.53;;;11.43;;
21258;SDS011;10787;53.364;-1.480;2023-04-15T02:34:26;18.33;;;12.00;;
21258;SDS011;10787;53.364;-1.480;2023-04-15T02:37:11;18.23;;;11.83;;
21258;SDS011;10787;53.364;-1.480;2023-04-15T02:39:57;17.73;;;11.80;;
21258;SDS011;10787;53.364;-1.480;2023-04-15T02:42:41;17.57;;;11.37;;
21258;SDS011;10787;53.364;-1.480;2023-04-15T02:45:27;15.90;;;11.37;;
21258;SDS011;10787;53.364;-1.480;2023-04-15T02:48:11;16.37;;;11.43;;
21258;SDS011;10787;53.364;-1.480;2023-04-15T02:54:02;14.90;;;10.27;;
21258;SDS011;10787;53.364;-1.480;2023-04-15T02:56:46;13.60;;;9.50;;
21258;SDS011;10787;53.364;-1.480;2023-04-15T02:59:31;13.43;;;9.63;;
21258;SDS011;10787;53.364;-1.480;2023-04-15T03:02:15;13.83;;;8.87;;
21258;SDS011;10787;53.364;-1.480;2023-04-15T03:04:59;11.53;;;8.30;;
21258;SDS011;10787;53.364;-1.480;2023-04-15T03:07:44;13.60;;;8.73;;
21258;SDS011;10787;53.364;-1.480;2023-04-15T03:10:28;14.57;;;9.13;;
21258;SDS011;10787;53.364;-1.480;2023-04-15T03:13:12;12.23;;;8.97;;
21258;SDS011;10787;53.364;-1.480;2023-04-15T03:15:56;14.70;;;9.03;;
21258;SDS011;10787;53.364;-1.480;2023-04-15T03:18:40;13.20;;;9.47;;
21258;SDS011;10787;53.364;-1.480;2023-04-15T03:21:24;14.83;;;10.37;;
21258;SDS011;10787;53.364;-1.480;2023-04-15T03:24:11;16.67;;;11.53;;
21258;SDS011;10787;53.364;-1.480;2023-04-15T03:26:55;17.90;;;12.03;;
21258;SDS011;10787;53.364;-1.480;2023-04-15T03:29:40;20.00;;;12.20;;
21258;SDS011;10787;53.364;-1.480;2023-04-15T03:32:25;16.73;;;11.77;;
21258;SDS011;10787;53.364;-1.480;2023-04-15T03:35:09;15.30;;;10.67;;
21258;SDS011;10787;53.364;-1.480;2023-04-15T03:37:53;15.70;;;10.67;;
21258;SDS011;10787;53.364;-1.480;2023-04-15T03:40:39;17.57;;;11.87;;
21258;SDS011;10787;53.364;-1.480;2023-04-15T03:43:24;15.53;;;11.03;;
21258;SDS011;10787;53.364;-1.480;2023-04-15T03:46:08;18.63;;;11.97;;
21258;SDS011;10787;53.364;-1.480;2023-04-15T03:48:53;16.53;;;11.30;;
21258;SDS011;10787;53.364;-1.480;2023-04-15T03:51:38;17.33;;;11.60;;
21258;SDS011;10787;53.364;-1.480;2023-04-15T03:54:22;16.17;;;11.20;;
21258;SDS011;10787;53.364;-1.480;2023-04-15T03:57:06;15.63;;;10.77;;
21258;SDS011;10787;53.364;-1.480;2023-04-15T03:59:50;16.73;;;10.37;;
21258;SDS011;10787;53.364;-1.480;2023-04-15T04:02:34;13.40;;;9.30;;
21258;SDS011;10787;53.364;-1.480;2023-04-15T04:05:18;13.63;;;9.23;;
21258;SDS011;10787;53.364;-1.480;2023-04-15T04:08:03;13.07;;;8.73;;
21258;SDS011;10787;53.364;-1.480;2023-04-15T04:10:48;11.43;;;7.90;;
21258;SDS011;10787;53.364;-1.480;2023-04-15T04:13:32;12.00;;;7.93;;
21258;SDS011;10787;53.364;-1.480;2023-04-15T04:16:16;13.73;;;9.00;;
21258;SDS011;10787;53.364;-1.480;2023-04-15T04:19:00;11.83;;;8.60;;
21258;SDS011;10787;53.364;-1.480;2023-04-15T04:21:44;11.03;;;7.73;;
21258;SDS011;10787;53.364;-1.480;2023-04-15T04:24:29;12.67;;;8.13;;
21258;SDS011;10787;53.364;-1.480;2023-04-15T04:27:14;13.00;;;8.53;;
21258;SDS011;10787;53.364;-1.480;2023-04-15T04:29:59;11.33;;;8.03;;
21258;SDS011;10787;53.364;-1.480;2023-04-15T04:32:43;11.40;;;7.97;;
21258;SDS011;10787;53.364;-1.480;2023-04-15T04:35:27;12.00;;;7.97;;
21258;SDS011;10787;53.364;-1.480;2023-04-15T04:38:11;10.53;;;7.50;;
21258;SDS011;10787;53.364;-1.480;2023-04-15T04:40:55;11.83;;;7.83;;
21258;SDS011;10787;53.364;-1.480;2023-04-15T04:43:40;12.20;;;7.70;;
21258;SDS011;10787;53.364;-1.480;2023-04-15T04:46:24;12.10;;;8.20;;
21258;SDS011;10787;53.364;-1.480;2023-04-15T04:49:08;12.77;;;8.33;;
21258;SDS011;10787;53.364;-1.480;2023-04-15T04:51:52;14.50;;;8.43;;
21258;SDS011;10787;53.364;-1.480;2023-04-15T04:54:37;13.27;;;8.73;;
21258;SDS011;10787;53.364;-1.480;2023-04-15T04:57:21;13.63;;;9.00;;
21258;SDS011;10787;53.364;-1.480;2023-04-15T05:00:06;12.70;;;9.03;;
21258;SDS011;10787;53.364;-1.480;2023-04-15T05:02:51;12.63;;;9.20;;
21258;SDS011;10787;53.364;-1.480;2023-04-15T05:05:36;15.13;;;9.90;;
21258;SDS011;10787;53.364;-1.480;2023-04-15T05:08:22;14.80;;;9.57;;
21258;SDS011;10787;53.364;-1.480;2023-04-15T05:11:06;13.97;;;9.30;;
21258;SDS011;10787;53.364;-1.480;2023-04-15T05:13:52;13.73;;;9.07;;
21258;SDS011;10787;53.364;-1.480;2023-04-15T05:16:36;15.00;;;10.00;;
21258;SDS011;10787;53.364;-1.480;2023-04-15T05:19:21;13.50;;;9.00;;
21258;SDS011;10787;53.364;-1.480;2023-04-15T05:22:05;14.20;;;9.57;;
21258;SDS011;10787;53.364;-1.480;2023-04-15T05:24:50;14.00;;;8.83;;
21258;SDS011;10787;53.364;-1.480;2023-04-15T05:27:35;13.80;;;9.70;;
21258;SDS011;10787;53.364;-1.480;2023-04-15T05:30:19;14.30;;;9.77;;
21258;SDS011;10787;53.364;-1.480;2023-04-15T05:33:04;15.53;;;9.97;;
21258;SDS011;10787;53.364;-1.480;2023-04-15T05:35:49;15.80;;;10.43;;
21258;SDS011;10787;53.364;-1.480;2023-04-15T05:38:33;15.70;;;9.97;;
21258;SDS011;10787;53.364;-1.480;2023-04-15T05:41:18;14.83;;;10.20;;
21258;SDS011;10787;53.364;-1.480;2023-04-15T05:44:02;16.43;;;10.43;;
21258;SDS011;10787;53.364;-1.480;2023-04-15T05:46:47;15.07;;;10.37;;
21258;SDS011;10787;53.364;-1.480;2023-04-15T05:49:31;16.50;;;10.03;;
21258;SDS011;10787;53.364;-1.480;2023-04-15T05:52:16;15.03;;;10.50;;
21258;SDS011;10787;53.364;-1.480;2023-04-15T05:55:00;14.70;;;9.80;;
21258;SDS011;10787;53.364;-1.480;2023-04-15T05:57:44;16.50;;;10.40;;
21258;SDS011;10787;53.364;-1.480;2023-04-15T06:00:29;15.13;;;10.03;;
21258;SDS011;10787;53.364;-1.480;2023-04-15T06:03:17;16.13;;;10.60;;
21258;SDS011;10787;53.364;-1.480;2023-04-15T06:06:01;15.97;;;10.57;;
21258;SDS011;10787;53.364;-1.480;2023-04-15T06:08:45;14.90;;;10.60;;
21258;SDS011;10787;53.364;-1.480;2023-04-15T06:11:29;14.93;;;9.87;;
21258;SDS011;10787;53.364;-1.480;2023-04-15T06:14:14;16.63;;;10.23;;
21258;SDS011;10787;53.364;-1.480;2023-04-15T06:16:58;17.00;;;10.30;;
21258;SDS011;10787;53.364;-1.480;2023-04-15T06:19:43;16.90;;;10.40;;
21258;SDS011;10787;53.364;-1.480;2023-04-15T06:22:27;16.50;;;10.70;;
21258;SDS011;10787;53.364;-1.480;2023-04-15T06:25:11;15.10;;;10.03;;
21258;SDS011;10787;53.364;-1.480;2023-04-15T06:27:57;16.53;;;11.03;;
21258;SDS011;10787;53.364;-1.480;2023-04-15T06:30:41;14.80;;;10.00;;
21258;SDS011;10787;53.364;-1.480;2023-04-15T06:33:26;13.60;;;9.83;;
21258;SDS011;10787;53.364;-1.480;2023-04-15T06:36:11;16.20;;;10.57;;
21258;SDS011;10787;53.364;-1.480;2023-04-15T06:38:55;14.87;;;10.20;;
21258;SDS011;10787;53.364;-1.480;2023-04-15T06:41:40;14.33;;;10.10;;
21258;SDS011;10787;53.364;-1.480;2023-04-15T06:44:24;15.37;;;10.63;;
21258;SDS011;10787;53.364;-1.480;2023-04-15T06:47:09;14.30;;;10.27;;
21258;SDS011;10787;53.364;-1.480;2023-04-15T06:49:55;17.47;;;10.83;;
21258;SDS011;10787;53.364;-1.480;2023-04-15T06:52:40;16.13;;;10.80;;
21258;SDS011;10787;53.364;-1.480;2023-04-15T06:55:24;17.33;;;10.63;;
21258;SDS011;10787;53.364;-1.480;2023-04-15T06:58:08;15.40;;;10.63;;
21258;SDS011;10787;53.364;-1.480;2023-04-15T07:00:53;17.00;;;11.33;;
21258;SDS011;10787;53.364;-1.480;2023-04-15T07:03:37;15.80;;;11.03;;
21258;SDS011;10787;53.364;-1.480;2023-04-15T07:06:22;15.50;;;10.57;;
21258;SDS011;10787;53.364;-1.480;2023-04-15T07:09:07;16.83;;;11.27;;
21258;SDS011;10787;53.364;-1.480;2023-04-15T07:11:51;17.70;;;11.23;;
21258;SDS011;10787;53.364;-1.480;2023-04-15T07:14:35;38.80;;;12.90;;
21258;SDS011;10787;53.364;-1.480;2023-04-15T07:17:20;18.00;;;11.07;;
21258;SDS011;10787;53.364;-1.480;2023-04-15T07:20:04;16.97;;;11.30;;
21258;SDS011;10787;53.364;-1.480;2023-04-15T07:22:49;19.93;;;11.73;;
21258;SDS011;10787;53.364;-1.480;2023-04-15T07:25:34;15.57;;;10.67;;
21258;SDS011;10787;53.364;-1.480;2023-04-15T07:28:18;18.43;;;10.60;;
21258;SDS011;10787;53.364;-1.480;2023-04-15T07:31:02;16.47;;;9.90;;
21258;SDS011;10787;53.364;-1.480;2023-04-15T07:33:46;16.17;;;10.60;;
21258;SDS011;10787;53.364;-1.480;2023-04-15T07:36:31;16.37;;;10.40;;
21258;SDS011;10787;53.364;-1.480;2023-04-15T07:39:15;15.93;;;10.33;;
21258;SDS011;10787;53.364;-1.480;2023-04-15T07:42:02;17.10;;;9.87;;
21258;SDS011;10787;53.364;-1.480;2023-04-15T07:44:47;13.83;;;9.53;;
21258;SDS011;10787;53.364;-1.480;2023-04-15T07:47:31;16.10;;;9.60;;
21258;SDS011;10787;53.364;-1.480;2023-04-15T07:50:16;16.47;;;10.30;;
21258;SDS011;10787;53.364;-1.480;2023-04-15T07:53:00;17.77;;;10.30;;
21258;SDS011;10787;53.364;-1.480;2023-04-15T07:55:45;16.63;;;10.37;;
21258;SDS011;10787;53.364;-1.480;2023-04-15T07:58:30;16.47;;;9.87;;
21258;SDS011;10787;53.364;-1.480;2023-04-15T08:01:14;14.03;;;9.13;;
21258;SDS011;10787;53.364;-1.480;2023-04-15T08:03:58;15.03;;;9.70;;
21258;SDS011;10787;53.364;-1.480;2023-04-15T08:06:43;13.73;;;9.27;;
21258;SDS011;10787;53.364;-1.480;2023-04-15T08:09:27;15.57;;;9.50;;
21258;SDS011;10787;53.364;-1.480;2023-04-15T08:12:12;14.27;;;9.23;;
21258;SDS011;10787;53.364;-1.480;2023-04-15T08:14:56;14.27;;;9.67;;
21258;SDS011;10787;53.364;-1.480;2023-04-15T08:17:41;14.03;;;9.70;;
21258;SDS011;10787;53.364;-1.480;2023-04-15T08:20:25;17.47;;;10.97;;
21258;SDS011;10787;53.364;-1.480;2023-04-15T08:23:10;13.90;;;9.63;;
21258;SDS011;10787;53.364;-1.480;2023-04-15T08:25:54;16.20;;;9.60;;
21258;SDS011;10787;53.364;-1.480;2023-04-15T08:28:39;12.33;;;8.70;;
21258;SDS011;10787;53.364;-1.480;2023-04-15T08:31:25;14.20;;;8.77;;
21258;SDS011;10787;53.364;-1.480;2023-04-15T08:34:10;13.10;;;8.57;;
21258;SDS011;10787;53.364;-1.480;2023-04-15T08:36:55;12.47;;;8.40;;
21258;SDS011;10787;53.364;-1.480;2023-04-15T08:39:40;10.87;;;7.93;;
21258;SDS011;10787;53.364;-1.480;2023-04-15T08:42:29;11.03;;;7.53;;
21258;SDS011;10787;53.364;-1.480;2023-04-15T08:45:18;9.37;;;7.30;;
21258;SDS011;10787;53.364;-1.480;2023-04-15T08:48:03;11.37;;;7.67;;
21258;SDS011;10787;53.364;-1.480;2023-04-15T08:50:49;11.00;;;7.30;;
21258;SDS011;10787;53.364;-1.480;2023-04-15T08:53:34;11.60;;;7.43;;
21258;SDS011;10787;53.364;-1.480;2023-04-15T08:56:20;10.97;;;8.17;;
21258;SDS011;10787;53.364;-1.480;2023-04-15T08:59:08;12.20;;;8.27;;
21258;SDS011;10787;53.364;-1.480;2023-04-15T09:01:53;12.90;;;8.57;;
21258;SDS011;10787;53.364;-1.480;2023-04-15T09:04:39;11.07;;;8.33;;
21258;SDS011;10787;53.364;-1.480;2023-04-15T09:07:24;14.17;;;8.30;;
21258;SDS011;10787;53.364;-1.480;2023-04-15T09:10:09;11.33;;;8.23;;
21258;SDS011;10787;53.364;-1.480;2023-04-15T09:12:53;13.53;;;8.33;;
21258;SDS011;10787;53.364;-1.480;2023-04-15T09:15:38;11.63;;;8.20;;
21258;SDS011;10787;53.364;-1.480;2023-04-15T09:18:27;11.73;;;7.73;;
21258;SDS011;10787;53.364;-1.480;2023-04-15T09:21:15;10.73;;;7.53;;
21258;SDS011;10787;53.364;-1.480;2023-04-15T09:24:01;12.10;;;7.70;;
21258;SDS011;10787;53.364;-1.480;2023-04-15T09:26:47;12.80;;;7.43;;
21258;SDS011;10787;53.364;-1.480;2023-04-15T09:29:34;10.63;;;7.40;;
21258;SDS011;10787;53.364;-1.480;2023-04-15T09:32:19;10.93;;;7.50;;
21258;SDS011;10787;53.364;-1.480;2023-04-15T09:35:12;10.13;;;6.72;;
21258;SDS011;10787;53.364;-1.480;2023-04-15T09:38:06;12.23;;;7.33;;
21258;SDS011;10787;53.364;-1.480;2023-04-15T09:40:52;11.93;;;6.73;;
21258;SDS011;10787;53.364;-1.480;2023-04-15T09:43:37;9.77;;;6.18;;
21258;SDS011;10787;53.364;-1.480;2023-04-15T09:46:39;10.27;;;6.30;;
21258;SDS011;10787;53.364;-1.480;2023-04-15T09:49:25;11.45;;;6.20;;
21258;SDS011;10787;53.364;-1.480;2023-04-15T09:52:12;10.25;;;6.65;;
21258;SDS011;10787;53.364;-1.480;2023-04-15T09:54:57;9.93;;;6.30;;
21258;SDS011;10787;53.364;-1.480;2023-04-15T09:57:42;12.55;;;7.05;;
21258;SDS011;10787;53.364;-1.480;2023-04-15T10:00:29;11.43;;;7.20;;
21258;SDS011;10787;53.364;-1.480;2023-04-15T10:03:19;13.05;;;7.10;;
21258;SDS011;10787;53.364;-1.480;2023-04-15T10:06:06;10.02;;;6.78;;
21258;SDS011;10787;53.364;-1.480;2023-04-15T10:08:51;10.98;;;6.88;;
21258;SDS011;10787;53.364;-1.480;2023-04-15T10:11:38;12.77;;;7.47;;
21258;SDS011;10787;53.364;-1.480;2023-04-15T10:14:23;13.20;;;7.80;;
21258;SDS011;10787;53.364;-1.480;2023-04-15T10:17:12;11.75;;;7.60;;
21258;SDS011;10787;53.364;-1.480;2023-04-15T10:20:01;11.15;;;6.78;;
21258;SDS011;10787;53.364;-1.480;2023-04-15T10:22:47;11.93;;;6.65;;
21258;SDS011;10787;53.364;-1.480;2023-04-15T10:25:33;10.98;;;6.13;;
21258;SDS011;10787;53.364;-1.480;2023-04-15T10:28:17;10.57;;;6.38;;
21258;SDS011;10787;53.364;-1.480;2023-04-15T10:31:02;8.15;;;6.10;;
21258;SDS011;10787;53.364;-1.480;2023-04-15T10:33:48;10.00;;;6.05;;
21258;SDS011;10787;53.364;-1.480;2023-04-15T10:36:33;9.75;;;5.90;;
21258;SDS011;10787;53.364;-1.480;2023-04-15T10:42:26;9.63;;;6.57;;
21258;SDS011;10787;53.364;-1.480;2023-04-15T10:45:18;8.73;;;5.82;;
21258;SDS011;10787;53.364;-1.480;2023-04-15T10:48:03;10.50;;;6.10;;
21258;SDS011;10787;53.364;-1.480;2023-04-15T10:50:54;8.73;;;5.35;;
21258;SDS011;10787;53.364;-1.480;2023-04-15T10:53:40;11.32;;;6.13;;
21258;SDS011;10787;53.364;-1.480;2023-04-15T10:56:29;13.30;;;6.90;;
21258;SDS011;10787;53.364;-1.480;2023-04-15T10:59:14;9.75;;;6.40;;
21258;SDS011;10787;53.364;-1.480;2023-04-15T11:02:00;10.68;;;7.07;;
21258;SDS011;10787;53.364;-1.480;2023-04-15T11:04:55;11.25;;;6.47;;
21258;SDS011;10787;53.364;-1.480;2023-04-15T11:13:25;7.57;;;5.47;;
21258;SDS011;10787;53.364;-1.480;2023-04-15T11:16:11;9.95;;;4.60;;
21258;SDS011;10787;53.364;-1.480;2023-04-15T11:18:56;8.77;;;5.68;;
21258;SDS011;10787;53.364;-1.480;2023-04-15T11:21:41;10.15;;;5.82;;
21258;SDS011;10787;53.364;-1.480;2023-04-15T11:24:25;9.15;;;6.28;;
21258;SDS011;10787;53.364;-1.480;2023-04-15T11:27:09;11.00;;;6.53;;
21258;SDS011;10787;53.364;-1.480;2023-04-15T11:30:23;9.73;;;6.35;;
21258;SDS011;10787;53.364;-1.480;2023-04-15T11:33:10;9.68;;;6.47;;
21258;SDS011;10787;53.364;-1.480;2023-04-15T11:35:54;8.98;;;5.82;;
21258;SDS011;10787;53.364;-1.480;2023-04-15T11:38:42;10.68;;;5.45;;
21258;SDS011;10787;53.364;-1.480;2023-04-15T11:41:29;8.07;;;5.22;;
21258;SDS011;10787;53.364;-1.480;2023-04-15T11:44:17;9.02;;;6.07;;
21258;SDS011;10787;53.364;-1.480;2023-04-15T11:47:20;7.68;;;5.38;;
21258;SDS011;10787;53.364;-1.480;2023-04-15T11:53:02;9.02;;;5.85;;
21258;SDS011;10787;53.364;-1.480;2023-04-15T11:55:51;9.10;;;5.55;;
21258;SDS011;10787;53.364;-1.480;2023-04-15T11:58:37;9.23;;;5.63;;
21258;SDS011;10787;53.364;-1.480;2023-04-15T12:01:35;7.30;;;4.97;;
21258;SDS011;10787;53.364;-1.480;2023-04-15T12:04:26;8.13;;;5.57;;
21258;SDS011;10787;53.364;-1.480;2023-04-15T12:07:10;9.75;;;5.20;;
21258;SDS011;10787;53.364;-1.480;2023-04-15T12:09:55;10.23;;;6.82;;
21258;SDS011;10787;53.364;-1.480;2023-04-15T12:12:40;7.40;;;5.90;;
21258;SDS011;10787;53.364;-1.480;2023-04-15T12:15:25;9.88;;;5.10;;
21258;SDS011;10787;53.364;-1.480;2023-04-15T12:18:18;7.45;;;4.90;;
21258;SDS011;10787;53.364;-1.480;2023-04-15T12:21:07;8.10;;;5.20;;
21258;SDS011;10787;53.364;-1.480;2023-04-15T12:23:56;7.80;;;5.30;;
21258;SDS011;10787;53.364;-1.480;2023-04-15T12:29:29;10.10;;;5.88;;
21258;SDS011;10787;53.364;-1.480;2023-04-15T12:32:15;8.27;;;5.55;;
21258;SDS011;10787;53.364;-1.480;2023-04-15T12:35:02;7.38;;;5.53;;
21258;SDS011;10787;53.364;-1.480;2023-04-15T12:37:48;10.63;;;7.13;;
21258;SDS011;10787;53.364;-1.480;2023-04-15T12:40:32;7.95;;;6.20;;
21258;SDS011;10787;53.364;-1.480;2023-04-15T12:43:17;8.70;;;6.07;;
21258;SDS011;10787;53.364;-1.480;2023-04-15T12:46:01;9.30;;;6.15;;
21258;SDS011;10787;53.364;-1.480;2023-04-15T12:48:47;8.98;;;6.18;;
21258;SDS011;10787;53.364;-1.480;2023-04-15T12:51:32;8.43;;;5.95;;
21258;SDS011;10787;53.364;-1.480;2023-04-15T12:54:16;7.53;;;5.95;;
21258;SDS011;10787;53.364;-1.480;2023-04-15T12:57:01;10.18;;;6.10;;
21258;SDS011;10787;53.364;-1.480;2023-04-15T12:59:46;8.82;;;6.55;;
21258;SDS011;10787;53.364;-1.480;2023-04-15T13:02:31;8.30;;;6.43;;
21258;SDS011;10787;53.364;-1.480;2023-04-15T13:05:15;8.43;;;6.03;;
21258;SDS011;10787;53.364;-1.480;2023-04-15T13:08:00;11.98;;;6.72;;
21258;SDS011;10787;53.364;-1.480;2023-04-15T13:10:44;10.02;;;6.60;;
21258;SDS011;10787;53.364;-1.480;2023-04-15T13:13:28;8.35;;;6.22;;
21258;SDS011;10787;53.364;-1.480;2023-04-15T13:16:33;8.20;;;5.90;;
21258;SDS011;10787;53.364;-1.480;2023-04-15T13:19:18;7.95;;;6.28;;
21258;SDS011;10787;53.364;-1.480;2023-04-15T13:22:02;8.80;;;6.15;;
21258;SDS011;10787;53.364;-1.480;2023-04-15T13:24:46;10.15;;;5.85;;
21258;SDS011;10787;53.364;-1.480;2023-04-15T13:27:30;9.80;;;5.90;;
21258;SDS011;10787;53.364;-1.480;2023-04-15T13:30:15;7.95;;;5.90;;
21258;SDS011;10787;53.364;-1.480;2023-04-15T13:33:00;8.07;;;5.60;;
21258;SDS011;10787;53.364;-1.480;2023-04-15T13:35:44;10.05;;;6.63;;
21258;SDS011;10787;53.364;-1.480;2023-04-15T13:38:28;9.05;;;6.35;;
21258;SDS011;10787;53.364;-1.480;2023-04-15T13:41:13;8.52;;;6.45;;
21258;SDS011;10787;53.364;-1.480;2023-04-15T13:43:57;8.15;;;6.20;;
21258;SDS011;10787;53.364;-1.480;2023-04-15T13:46:41;8.57;;;6.65;;
21258;SDS011;10787;53.364;-1.480;2023-04-15T13:49:26;9.50;;;6.90;;
21258;SDS011;10787;53.364;-1.480;2023-04-15T13:52:10;9.95;;;5.95;;
21258;SDS011;10787;53.364;-1.480;2023-04-15T13:54:55;7.40;;;5.43;;
21258;SDS011;10787;53.364;-1.480;2023-04-15T13:57:39;6.63;;;5.30;;
21258;SDS011;10787;53.364;-1.480;2023-04-15T14:00:24;8.57;;;5.90;;
21258;SDS011;10787;53.364;-1.480;2023-04-15T14:03:08;7.22;;;5.10;;
21258;SDS011;10787;53.364;-1.480;2023-04-15T14:05:52;8.35;;;6.30;;
21258;SDS011;10787;53.364;-1.480;2023-04-15T14:08:38;7.80;;;6.60;;
21258;SDS011;10787;53.364;-1.480;2023-04-15T14:11:23;9.57;;;6.53;;
21258;SDS011;10787;53.364;-1.480;2023-04-15T14:14:07;9.05;;;5.80;;
21258;SDS011;10787;53.364;-1.480;2023-04-15T14:16:51;7.40;;;6.10;;
21258;SDS011;10787;53.364;-1.480;2023-04-15T14:19:35;10.88;;;5.85;;
21258;SDS011;10787;53.364;-1.480;2023-04-15T14:22:19;9.75;;;6.50;;
21258;SDS011;10787;53.364;-1.480;2023-04-15T14:25:04;11.20;;;6.38;;
21258;SDS011;10787;53.364;-1.480;2023-04-15T14:27:48;8.57;;;5.75;;
21258;SDS011;10787;53.364;-1.480;2023-04-15T14:30:33;7.70;;;5.80;;
21258;SDS011;10787;53.364;-1.480;2023-04-15T14:33:18;8.27;;;5.95;;
21258;SDS011;10787;53.364;-1.480;2023-04-15T14:36:02;7.63;;;5.82;;
21258;SDS011;10787;53.364;-1.480;2023-04-15T14:38:47;8.27;;;6.32;;
21258;SDS011;10787;53.364;-1.480;2023-04-15T14:41:31;7.90;;;5.90;;
21258;SDS011;10787;53.364;-1.480;2023-04-15T14:44:16;8.02;;;5.65;;
21258;SDS011;10787;53.364;-1.480;2023-04-15T14:47:00;7.97;;;6.03;;
21258;SDS011;10787;53.364;-1.480;2023-04-15T14:49:45;7.05;;;5.20;;
21258;SDS011;10787;53.364;-1.480;2023-04-15T14:52:29;9.43;;;5.88;;
21258;SDS011;10787;53.364;-1.480;2023-04-15T14:55:20;8.52;;;5.30;;
21258;SDS011;10787;53.364;-1.480;2023-04-15T14:58:05;8.02;;;5.38;;
21258;SDS011;10787;53.364;-1.480;2023-04-15T15:00:50;9.18;;;5.28;;
21258;SDS011;10787;53.364;-1.480;2023-04-15T15:03:34;11.20;;;5.45;;
21258;SDS011;10787;53.364;-1.480;2023-04-15T15:06:19;10.73;;;5.55;;
21258;SDS011;10787;53.364;-1.480;2023-04-15T15:09:05;7.50;;;5.45;;
21258;SDS011;10787;53.364;-1.480;2023-04-15T15:11:50;8.50;;;5.00;;
21258;SDS011;10787;53.364;-1.480;2023-04-15T15:14:34;8.43;;;4.90;;
21258;SDS011;10787;53.364;-1.480;2023-04-15T15:17:18;6.85;;;5.05;;
21258;SDS011;10787;53.364;-1.480;2023-04-15T15:20:03;7.03;;;4.97;;
21258;SDS011;10787;53.364;-1.480;2023-04-15T15:22:47;7.03;;;4.88;;
21258;SDS011;10787;53.364;-1.480;2023-04-15T15:25:32;7.00;;;5.20;;
21258;SDS011;10787;53.364;-1.480;2023-04-15T15:28:16;6.07;;;5.00;;
21258;SDS011;10787;53.364;-1.480;2023-04-15T15:31:01;5.22;;;4.45;;
21258;SDS011;10787;53.364;-1.480;2023-04-15T15:33:45;5.68;;;4.40;;
21258;SDS011;10787;53.364;-1.480;2023-04-15T15:36:29;5.07;;;4.10;;
21258;SDS011;10787;53.364;-1.480;2023-04-15T15:39:16;7.97;;;5.30;;
21258;SDS011;10787;53.364;-1.480;2023-04-15T15:42:01;6.28;;;5.03;;
21258;SDS011;10787;53.364;-1.480;2023-04-15T15:44:45;6.90;;;5.28;;
21258;SDS011;10787;53.364;-1.480;2023-04-15T15:47:31;8.13;;;5.10;;
21258;SDS011;10787;53.364;-1.480;2023-04-15T15:50:16;6.35;;;4.85;;
21258;SDS011;10787;53.364;-1.480;2023-04-15T15:53:00;7.68;;;5.28;;
21258;SDS011;10787;53.364;-1.480;2023-04-15T15:55:48;6.00;;;4.90;;
21258;SDS011;10787;53.364;-1.480;2023-04-15T15:58:32;6.28;;;4.20;;
21258;SDS011;10787;53.364;-1.480;2023-04-15T16:01:16;5.93;;;4.00;;
21258;SDS011;10787;53.364;-1.480;2023-04-15T16:04:01;5.90;;;4.30;;
21258;SDS011;10787;53.364;-1.480;2023-04-15T16:06:45;5.97;;;3.80;;
21258;SDS011;10787;53.364;-1.480;2023-04-15T16:09:30;5.65;;;4.10;;
21258;SDS011;10787;53.364;-1.480;2023-04-15T16:12:15;6.00;;;4.00;;
21258;SDS011;10787;53.364;-1.480;2023-04-15T16:14:59;6.57;;;4.00;;
21258;SDS011;10787;53.364;-1.480;2023-04-15T16:17:44;6.43;;;4.25;;
21258;SDS011;10787;53.364;-1.480;2023-04-15T16:20:28;5.72;;;4.45;;
21258;SDS011;10787;53.364;-1.480;2023-04-15T16:23:14;4.72;;;4.00;;